Shaw Air Force Base Sumter US
ICAO: KSSC
IATA: SSC
Category: Large
Scheduled Services: No

Elevation: 241 ft
TransAlt. 18000 ft.

Airport Communications:
APP/DEP:125.4
ATIS:132.125
CLNC DEL:121.8
GND:126.1
PMSV METRO:34.25
COMD POST:38.13
PTD:139.6
TWR:126.65

KSSC Zoom In..

If you have problems with the map follow the link
https://www.worldairports.se/pages/airport.php?
ICAO=KSSC

Runways:

(A) RW 04L length 10014 ft width 150 ft
ILS 110.10 / hdg 40

(B) RW 04R length 8001 ft width 150 ft
---- / hdg 40

(C) RW 22L length 8001 ft width 150 ft
---- / hdg 220

(D) RW 22R length 10014 ft width 150 ft
ILS 108.70 / hdg 220

Location; KSSC
Day. 12 / Time. 07.56 Zulu
* Altimeter: 30.53
* Temperature: 00° c. 32°f.
* Wind from: 030° Speed 03 kn.
Dewpoint: -03° c.
Visibility: 10 Statute Miles.
Clouds: Clear (automated report).

KSSC 120756Z AUTO 03003KT 10SM CLR 00/M03 A3053 RMK AO2 SLP342 T00041032 $


Wind From 030°
Speed 03 kn.

 
 
jpsmedia worldairports.se 2019   terms of use